sensor_id;sensor_type;location;lat;lon;timestamp;P1;durP1;ratioP1;P2;durP2;ratioP2
27408;SDS011;20413;50.782;7.152;2022-09-27T00:01:58;8.23;;;3.90;;
27408;SDS011;20413;50.782;7.152;2022-09-27T00:04:24;6.07;;;3.90;;
27408;SDS011;20413;50.782;7.152;2022-09-27T00:06:50;8.27;;;3.55;;
27408;SDS011;20413;50.782;7.152;2022-09-27T00:09:16;6.70;;;3.70;;
27408;SDS011;20413;50.782;7.152;2022-09-27T00:11:42;6.13;;;3.75;;
27408;SDS011;20413;50.782;7.152;2022-09-27T00:14:08;7.70;;;3.22;;
27408;SDS011;20413;50.782;7.152;2022-09-27T00:16:37;8.75;;;3.22;;
27408;SDS011;20413;50.782;7.152;2022-09-27T00:19:05;5.68;;;3.00;;
27408;SDS011;20413;50.782;7.152;2022-09-27T00:21:34;8.20;;;3.88;;
27408;SDS011;20413;50.782;7.152;2022-09-27T00:24:00;11.05;;;3.83;;
27408;SDS011;20413;50.782;7.152;2022-09-27T00:26:25;7.50;;;3.70;;
27408;SDS011;20413;50.782;7.152;2022-09-27T00:28:51;7.13;;;2.90;;
27408;SDS011;20413;50.782;7.152;2022-09-27T00:31:18;5.75;;;2.70;;
27408;SDS011;20413;50.782;7.152;2022-09-27T00:33:46;5.30;;;2.00;;
27408;SDS011;20413;50.782;7.152;2022-09-27T00:36:13;4.80;;;2.47;;
27408;SDS011;20413;50.782;7.152;2022-09-27T00:38:39;5.13;;;2.33;;
27408;SDS011;20413;50.782;7.152;2022-09-27T00:41:05;5.68;;;2.42;;
27408;SDS011;20413;50.782;7.152;2022-09-27T00:43:44;4.90;;;2.70;;
27408;SDS011;20413;50.782;7.152;2022-09-27T00:46:13;7.80;;;2.42;;
27408;SDS011;20413;50.782;7.152;2022-09-27T00:48:55;5.53;;;2.53;;
27408;SDS011;20413;50.782;7.152;2022-09-27T00:51:30;2.92;;;2.65;;
27408;SDS011;20413;50.782;7.152;2022-09-27T00:56:26;5.53;;;3.35;;
27408;SDS011;20413;50.782;7.152;2022-09-27T00:59:28;5.68;;;3.97;;
27408;SDS011;20413;50.782;7.152;2022-09-27T01:01:59;6.85;;;4.00;;
27408;SDS011;20413;50.782;7.152;2022-09-27T01:04:28;4.20;;;3.70;;
27408;SDS011;20413;50.782;7.152;2022-09-27T01:06:56;6.72;;;4.30;;
27408;SDS011;20413;50.782;7.152;2022-09-27T01:09:21;10.55;;;4.53;;
27408;SDS011;20413;50.782;7.152;2022-09-27T01:26:12;5.47;;;2.53;;
27408;SDS011;20413;50.782;7.152;2022-09-27T01:28:56;7.75;;;2.85;;
27408;SDS011;20413;50.782;7.152;2022-09-27T01:34:25;7.75;;;1.90;;
27408;SDS011;20413;50.782;7.152;2022-09-27T01:42:39;4.18;;;1.20;;
27408;SDS011;20413;50.782;7.152;2022-09-27T01:45:13;2.95;;;1.30;;
27408;SDS011;20413;50.782;7.152;2022-09-27T01:47:49;5.13;;;1.48;;
27408;SDS011;20413;50.782;7.152;2022-09-27T01:50:31;2.45;;;1.25;;
27408;SDS011;20413;50.782;7.152;2022-09-27T01:55:48;2.17;;;1.40;;
27408;SDS011;20413;50.782;7.152;2022-09-27T01:58:18;4.25;;;1.30;;
27408;SDS011;20413;50.782;7.152;2022-09-27T02:00:48;2.95;;;1.85;;
27408;SDS011;20413;50.782;7.152;2022-09-27T02:03:20;9.05;;;2.40;;
27408;SDS011;20413;50.782;7.152;2022-09-27T02:05:53;1.90;;;1.33;;
27408;SDS011;20413;50.782;7.152;2022-09-27T02:08:35;1.85;;;1.30;;
27408;SDS011;20413;50.782;7.152;2022-09-27T02:11:09;5.70;;;1.23;;
27408;SDS011;20413;50.782;7.152;2022-09-27T02:13:42;2.80;;;1.40;;
27408;SDS011;20413;50.782;7.152;2022-09-27T02:21:51;3.35;;;1.80;;
27408;SDS011;20413;50.782;7.152;2022-09-27T02:24:29;4.10;;;1.83;;
27408;SDS011;20413;50.782;7.152;2022-09-27T02:27:08;2.85;;;2.30;;
27408;SDS011;20413;50.782;7.152;2022-09-27T02:29:41;2.30;;;2.20;;
27408;SDS011;20413;50.782;7.152;2022-09-27T02:32:14;3.17;;;2.80;;
27408;SDS011;20413;50.782;7.152;2022-09-27T02:34:40;5.15;;;2.70;;
27408;SDS011;20413;50.782;7.152;2022-09-27T02:37:08;9.10;;;2.95;;
27408;SDS011;20413;50.782;7.152;2022-09-27T02:39:34;2.55;;;2.35;;
27408;SDS011;20413;50.782;7.152;2022-09-27T02:42:01;4.25;;;2.78;;
27408;SDS011;20413;50.782;7.152;2022-09-27T02:44:27;4.45;;;2.95;;
27408;SDS011;20413;50.782;7.152;2022-09-27T02:49:40;5.80;;;2.70;;
27408;SDS011;20413;50.782;7.152;2022-09-27T02:58:17;5.00;;;2.20;;
27408;SDS011;20413;50.782;7.152;2022-09-27T03:01:22;5.85;;;2.58;;
27408;SDS011;20413;50.782;7.152;2022-09-27T03:06:40;3.15;;;2.17;;
27408;SDS011;20413;50.782;7.152;2022-09-27T03:09:27;4.60;;;2.13;;
27408;SDS011;20413;50.782;7.152;2022-09-27T03:12:03;2.85;;;2.00;;
27408;SDS011;20413;50.782;7.152;2022-09-27T03:14:29;5.57;;;2.15;;
27408;SDS011;20413;50.782;7.152;2022-09-27T03:16:54;4.95;;;2.03;;
27408;SDS011;20413;50.782;7.152;2022-09-27T03:19:20;4.25;;;1.70;;
27408;SDS011;20413;50.782;7.152;2022-09-27T03:21:46;4.53;;;1.70;;
27408;SDS011;20413;50.782;7.152;2022-09-27T03:24:11;6.65;;;2.15;;
27408;SDS011;20413;50.782;7.152;2022-09-27T03:26:37;1.95;;;1.60;;
27408;SDS011;20413;50.782;7.152;2022-09-27T03:29:02;2.50;;;1.80;;
27408;SDS011;20413;50.782;7.152;2022-09-27T03:31:28;3.63;;;1.65;;
27408;SDS011;20413;50.782;7.152;2022-09-27T03:33:54;1.75;;;1.40;;
27408;SDS011;20413;50.782;7.152;2022-09-27T03:36:19;3.42;;;1.80;;
27408;SDS011;20413;50.782;7.152;2022-09-27T03:38:45;3.25;;;1.80;;
27408;SDS011;20413;50.782;7.152;2022-09-27T03:41:11;4.00;;;1.77;;
27408;SDS011;20413;50.782;7.152;2022-09-27T03:43:36;4.82;;;1.60;;
27408;SDS011;20413;50.782;7.152;2022-09-27T03:46:02;6.05;;;1.70;;
27408;SDS011;20413;50.782;7.152;2022-09-27T03:48:28;4.03;;;1.75;;
27408;SDS011;20413;50.782;7.152;2022-09-27T03:50:55;3.97;;;1.45;;
27408;SDS011;20413;50.782;7.152;2022-09-27T03:53:20;2.55;;;1.30;;
27408;SDS011;20413;50.782;7.152;2022-09-27T03:55:46;6.22;;;1.65;;
27408;SDS011;20413;50.782;7.152;2022-09-27T03:58:12;4.55;;;1.70;;
27408;SDS011;20413;50.782;7.152;2022-09-27T04:00:38;3.40;;;1.70;;
27408;SDS011;20413;50.782;7.152;2022-09-27T04:03:05;3.97;;;1.10;;
27408;SDS011;20413;50.782;7.152;2022-09-27T04:05:30;3.83;;;1.30;;
27408;SDS011;20413;50.782;7.152;2022-09-27T04:07:56;3.72;;;1.10;;
27408;SDS011;20413;50.782;7.152;2022-09-27T04:10:23;2.60;;;0.85;;
27408;SDS011;20413;50.782;7.152;2022-09-27T04:12:48;3.35;;;0.80;;
27408;SDS011;20413;50.782;7.152;2022-09-27T04:15:14;2.28;;;1.00;;
27408;SDS011;20413;50.782;7.152;2022-09-27T04:17:41;3.70;;;1.15;;
27408;SDS011;20413;50.782;7.152;2022-09-27T04:20:08;1.75;;;0.82;;
27408;SDS011;20413;50.782;7.152;2022-09-27T04:22:37;3.95;;;0.88;;
27408;SDS011;20413;50.782;7.152;2022-09-27T04:25:04;2.38;;;0.98;;
27408;SDS011;20413;50.782;7.152;2022-09-27T04:27:30;1.30;;;1.02;;
27408;SDS011;20413;50.782;7.152;2022-09-27T04:29:55;2.00;;;0.90;;
27408;SDS011;20413;50.782;7.152;2022-09-27T04:32:21;3.35;;;1.27;;
27408;SDS011;20413;50.782;7.152;2022-09-27T04:34:47;4.03;;;1.50;;
27408;SDS011;20413;50.782;7.152;2022-09-27T04:37:31;3.85;;;1.42;;
27408;SDS011;20413;50.782;7.152;2022-09-27T04:39:57;2.15;;;1.40;;
27408;SDS011;20413;50.782;7.152;2022-09-27T04:42:22;1.77;;;1.35;;
27408;SDS011;20413;50.782;7.152;2022-09-27T04:44:48;4.38;;;1.60;;
27408;SDS011;20413;50.782;7.152;2022-09-27T04:47:13;3.17;;;1.20;;
27408;SDS011;20413;50.782;7.152;2022-09-27T04:49:39;4.15;;;1.58;;
27408;SDS011;20413;50.782;7.152;2022-09-27T04:52:04;2.90;;;1.20;;
27408;SDS011;20413;50.782;7.152;2022-09-27T04:54:30;3.75;;;1.55;;
27408;SDS011;20413;50.782;7.152;2022-09-27T04:56:56;5.50;;;1.60;;
27408;SDS011;20413;50.782;7.152;2022-09-27T04:59:22;2.63;;;1.50;;
27408;SDS011;20413;50.782;7.152;2022-09-27T05:01:47;4.70;;;1.48;;
27408;SDS011;20413;50.782;7.152;2022-09-27T05:04:14;3.33;;;1.20;;
27408;SDS011;20413;50.782;7.152;2022-09-27T05:06:40;3.28;;;1.70;;
27408;SDS011;20413;50.782;7.152;2022-09-27T05:09:05;2.30;;;1.48;;
27408;SDS011;20413;50.782;7.152;2022-09-27T05:11:31;4.00;;;1.77;;
27408;SDS011;20413;50.782;7.152;2022-09-27T05:13:56;3.38;;;1.40;;
27408;SDS011;20413;50.782;7.152;2022-09-27T05:16:22;5.50;;;1.30;;
27408;SDS011;20413;50.782;7.152;2022-09-27T05:18:48;5.80;;;1.23;;
27408;SDS011;20413;50.782;7.152;2022-09-27T05:21:14;4.53;;;1.20;;
27408;SDS011;20413;50.782;7.152;2022-09-27T05:23:39;5.68;;;1.65;;
27408;SDS011;20413;50.782;7.152;2022-09-27T05:26:06;4.57;;;1.55;;
27408;SDS011;20413;50.782;7.152;2022-09-27T05:28:32;2.05;;;1.40;;
27408;SDS011;20413;50.782;7.152;2022-09-27T05:30:59;1.92;;;1.42;;
27408;SDS011;20413;50.782;7.152;2022-09-27T05:33:25;3.15;;;1.25;;
27408;SDS011;20413;50.782;7.152;2022-09-27T05:35:55;4.03;;;1.60;;
27408;SDS011;20413;50.782;7.152;2022-09-27T05:38:22;5.22;;;1.13;;
27408;SDS011;20413;50.782;7.152;2022-09-27T05:40:48;4.63;;;1.20;;
27408;SDS011;20413;50.782;7.152;2022-09-27T05:43:15;7.45;;;1.40;;
27408;SDS011;20413;50.782;7.152;2022-09-27T05:45:41;5.13;;;1.50;;
27408;SDS011;20413;50.782;7.152;2022-09-27T05:48:08;3.53;;;1.30;;
27408;SDS011;20413;50.782;7.152;2022-09-27T05:50:34;4.53;;;1.35;;
27408;SDS011;20413;50.782;7.152;2022-09-27T05:53:00;4.03;;;1.20;;
27408;SDS011;20413;50.782;7.152;2022-09-27T05:55:25;6.85;;;1.20;;
27408;SDS011;20413;50.782;7.152;2022-09-27T05:57:55;1.70;;;1.38;;
27408;SDS011;20413;50.782;7.152;2022-09-27T06:00:25;3.83;;;1.10;;
27408;SDS011;20413;50.782;7.152;2022-09-27T06:02:52;4.05;;;1.05;;
27408;SDS011;20413;50.782;7.152;2022-09-27T06:05:23;2.95;;;1.05;;
27408;SDS011;20413;50.782;7.152;2022-09-27T06:07:50;5.25;;;1.13;;
27408;SDS011;20413;50.782;7.152;2022-09-27T06:10:17;3.38;;;1.20;;
27408;SDS011;20413;50.782;7.152;2022-09-27T06:12:43;2.25;;;1.10;;
27408;SDS011;20413;50.782;7.152;2022-09-27T06:15:09;6.75;;;1.20;;
27408;SDS011;20413;50.782;7.152;2022-09-27T06:17:35;2.33;;;1.08;;
27408;SDS011;20413;50.782;7.152;2022-09-27T06:20:01;3.67;;;1.73;;
27408;SDS011;20413;50.782;7.152;2022-09-27T06:22:27;2.15;;;1.15;;
27408;SDS011;20413;50.782;7.152;2022-09-27T06:24:53;2.90;;;1.25;;
27408;SDS011;20413;50.782;7.152;2022-09-27T06:27:18;6.88;;;1.38;;
27408;SDS011;20413;50.782;7.152;2022-09-27T06:29:44;6.18;;;0.90;;
27408;SDS011;20413;50.782;7.152;2022-09-27T06:32:11;1.95;;;1.13;;
27408;SDS011;20413;50.782;7.152;2022-09-27T06:34:37;2.47;;;0.98;;
27408;SDS011;20413;50.782;7.152;2022-09-27T06:37:03;2.30;;;1.15;;
27408;SDS011;20413;50.782;7.152;2022-09-27T06:39:29;5.72;;;1.10;;
27408;SDS011;20413;50.782;7.152;2022-09-27T06:41:57;3.63;;;1.10;;
27408;SDS011;20413;50.782;7.152;2022-09-27T06:44:23;3.72;;;1.10;;
27408;SDS011;20413;50.782;7.152;2022-09-27T06:46:50;1.77;;;1.00;;
27408;SDS011;20413;50.782;7.152;2022-09-27T06:49:16;4.40;;;1.40;;
27408;SDS011;20413;50.782;7.152;2022-09-27T06:51:43;1.80;;;1.00;;
27408;SDS011;20413;50.782;7.152;2022-09-27T06:54:09;2.53;;;0.98;;
27408;SDS011;20413;50.782;7.152;2022-09-27T06:56:34;3.90;;;1.00;;
27408;SDS011;20413;50.782;7.152;2022-09-27T06:59:00;2.50;;;0.80;;
27408;SDS011;20413;50.782;7.152;2022-09-27T07:01:44;2.20;;;0.70;;
27408;SDS011;20413;50.782;7.152;2022-09-27T07:04:10;3.42;;;0.70;;
27408;SDS011;20413;50.782;7.152;2022-09-27T07:06:36;5.13;;;0.68;;
27408;SDS011;20413;50.782;7.152;2022-09-27T07:09:02;2.03;;;0.60;;
27408;SDS011;20413;50.782;7.152;2022-09-27T07:11:28;1.52;;;0.60;;
27408;SDS011;20413;50.782;7.152;2022-09-27T07:13:53;2.80;;;0.60;;
27408;SDS011;20413;50.782;7.152;2022-09-27T07:16:20;0.60;;;0.50;;
27408;SDS011;20413;50.782;7.152;2022-09-27T07:18:46;4.82;;;0.50;;
27408;SDS011;20413;50.782;7.152;2022-09-27T07:21:12;3.35;;;0.60;;
27408;SDS011;20413;50.782;7.152;2022-09-27T07:23:40;3.15;;;0.65;;
27408;SDS011;20413;50.782;7.152;2022-09-27T07:26:06;1.27;;;0.60;;
27408;SDS011;20413;50.782;7.152;2022-09-27T07:28:34;4.35;;;0.90;;
27408;SDS011;20413;50.782;7.152;2022-09-27T07:31:01;3.75;;;0.68;;
27408;SDS011;20413;50.782;7.152;2022-09-27T07:33:28;6.00;;;1.30;;
27408;SDS011;20413;50.782;7.152;2022-09-27T07:35:54;1.45;;;0.80;;
27408;SDS011;20413;50.782;7.152;2022-09-27T07:38:20;1.65;;;0.82;;
27408;SDS011;20413;50.782;7.152;2022-09-27T07:40:45;4.15;;;0.70;;
27408;SDS011;20413;50.782;7.152;2022-09-27T07:43:11;3.35;;;0.60;;
27408;SDS011;20413;50.782;7.152;2022-09-27T07:45:37;1.75;;;0.52;;
27408;SDS011;20413;50.782;7.152;2022-09-27T07:48:04;2.42;;;0.50;;
27408;SDS011;20413;50.782;7.152;2022-09-27T07:50:30;2.88;;;0.52;;
27408;SDS011;20413;50.782;7.152;2022-09-27T07:52:56;1.45;;;0.50;;
27408;SDS011;20413;50.782;7.152;2022-09-27T07:55:22;1.15;;;0.50;;
27408;SDS011;20413;50.782;7.152;2022-09-27T07:57:48;2.00;;;0.47;;
27408;SDS011;20413;50.782;7.152;2022-09-27T08:00:15;5.30;;;0.82;;
27408;SDS011;20413;50.782;7.152;2022-09-27T08:02:43;1.20;;;0.35;;
27408;SDS011;20413;50.782;7.152;2022-09-27T08:05:10;1.90;;;0.50;;
27408;SDS011;20413;50.782;7.152;2022-09-27T08:07:36;1.92;;;0.52;;
27408;SDS011;20413;50.782;7.152;2022-09-27T08:10:03;1.00;;;0.45;;
27408;SDS011;20413;50.782;7.152;2022-09-27T08:12:30;1.63;;;0.50;;
27408;SDS011;20413;50.782;7.152;2022-09-27T08:14:55;1.02;;;0.50;;
27408;SDS011;20413;50.782;7.152;2022-09-27T08:17:25;1.58;;;0.80;;
27408;SDS011;20413;50.782;7.152;2022-09-27T08:19:53;1.75;;;0.77;;
27408;SDS011;20413;50.782;7.152;2022-09-27T08:22:20;1.05;;;0.60;;
27408;SDS011;20413;50.782;7.152;2022-09-27T08:24:46;0.65;;;0.40;;
27408;SDS011;20413;50.782;7.152;2022-09-27T08:27:12;1.20;;;0.52;;
27408;SDS011;20413;50.782;7.152;2022-09-27T08:29:39;1.30;;;0.43;;
27408;SDS011;20413;50.782;7.152;2022-09-27T08:32:06;2.63;;;0.70;;
27408;SDS011;20413;50.782;7.152;2022-09-27T08:34:32;2.05;;;0.40;;
27408;SDS011;20413;50.782;7.152;2022-09-27T08:36:58;1.65;;;0.70;;
27408;SDS011;20413;50.782;7.152;2022-09-27T08:39:23;2.60;;;0.50;;
27408;SDS011;20413;50.782;7.152;2022-09-27T08:41:52;3.17;;;0.60;;
27408;SDS011;20413;50.782;7.152;2022-09-27T08:47:28;5.25;;;0.90;;
27408;SDS011;20413;50.782;7.152;2022-09-27T08:50:19;1.65;;;0.70;;
27408;SDS011;20413;50.782;7.152;2022-09-27T08:52:56;0.88;;;0.70;;
27408;SDS011;20413;50.782;7.152;2022-09-27T08:57:54;2.53;;;0.70;;
27408;SDS011;20413;50.782;7.152;2022-09-27T09:00:22;2.38;;;1.13;;
27408;SDS011;20413;50.782;7.152;2022-09-27T09:02:48;0.75;;;0.50;;
27408;SDS011;20413;50.782;7.152;2022-09-27T09:05:48;2.90;;;0.50;;
27408;SDS011;20413;50.782;7.152;2022-09-27T09:14:12;1.15;;;0.40;;
27408;SDS011;20413;50.782;7.152;2022-09-27T09:16:51;0.80;;;0.80;;
27408;SDS011;20413;50.782;7.152;2022-09-27T09:22:51;3.85;;;0.40;;
27408;SDS011;20413;50.782;7.152;2022-09-27T09:33:46;0.38;;;0.28;;
27408;SDS011;20413;50.782;7.152;2022-09-27T09:38:56;1.42;;;0.50;;
27408;SDS011;20413;50.782;7.152;2022-09-27T09:41:31;0.55;;;0.30;;
27408;SDS011;20413;50.782;7.152;2022-09-27T09:47:10;0.38;;;0.10;;
27408;SDS011;20413;50.782;7.152;2022-09-27T09:49:57;1.42;;;0.40;;
27408;SDS011;20413;50.782;7.152;2022-09-27T09:52:35;0.90;;;0.43;;
27408;SDS011;20413;50.782;7.152;2022-09-27T09:55:07;1.00;;;0.20;;
27408;SDS011;20413;50.782;7.152;2022-09-27T09:58:05;0.75;;;0.30;;
27408;SDS011;20413;50.782;7.152;2022-09-27T10:00:36;2.65;;;0.40;;
27408;SDS011;20413;50.782;7.152;2022-09-27T10:03:04;0.82;;;0.28;;
27408;SDS011;20413;50.782;7.152;2022-09-27T10:05:29;0.82;;;0.50;;
27408;SDS011;20413;50.782;7.152;2022-09-27T10:07:59;4.88;;;0.40;;
27408;SDS011;20413;50.782;7.152;2022-09-27T10:10:27;2.40;;;0.30;;
27408;SDS011;20413;50.782;7.152;2022-09-27T10:12:53;3.00;;;0.60;;
27408;SDS011;20413;50.782;7.152;2022-09-27T10:15:21;1.17;;;0.70;;
27408;SDS011;20413;50.782;7.152;2022-09-27T10:17:49;0.98;;;0.40;;
27408;SDS011;20413;50.782;7.152;2022-09-27T10:20:26;1.27;;;0.50;;
27408;SDS011;20413;50.782;7.152;2022-09-27T10:22:58;0.35;;;0.32;;
27408;SDS011;20413;50.782;7.152;2022-09-27T10:25:44;2.35;;;0.43;;
27408;SDS011;20413;50.782;7.152;2022-09-27T10:28:40;1.70;;;0.68;;
27408;SDS011;20413;50.782;7.152;2022-09-27T10:31:10;1.77;;;0.80;;
27408;SDS011;20413;50.782;7.152;2022-09-27T10:33:38;1.05;;;0.70;;
27408;SDS011;20413;50.782;7.152;2022-09-27T10:36:23;2.63;;;0.65;;
27408;SDS011;20413;50.782;7.152;2022-09-27T10:38:58;2.85;;;0.98;;
27408;SDS011;20413;50.782;7.152;2022-09-27T10:41:32;1.00;;;0.73;;
27408;SDS011;20413;50.782;7.152;2022-09-27T10:46:44;1.35;;;0.60;;
27408;SDS011;20413;50.782;7.152;2022-09-27T10:51:53;3.28;;;0.60;;
27408;SDS011;20413;50.782;7.152;2022-09-27T10:54:22;2.33;;;0.55;;
27408;SDS011;20413;50.782;7.152;2022-09-27T10:56:57;1.23;;;0.57;;
27408;SDS011;20413;50.782;7.152;2022-09-27T10:59:25;4.20;;;1.23;;
27408;SDS011;20413;50.782;7.152;2022-09-27T11:01:54;1.92;;;0.65;;
27408;SDS011;20413;50.782;7.152;2022-09-27T11:04:30;3.13;;;0.55;;
27408;SDS011;20413;50.782;7.152;2022-09-27T11:09:48;5.57;;;0.63;;
27408;SDS011;20413;50.782;7.152;2022-09-27T11:12:19;2.85;;;0.75;;
27408;SDS011;20413;50.782;7.152;2022-09-27T11:14:57;2.13;;;0.57;;
27408;SDS011;20413;50.782;7.152;2022-09-27T11:17:31;1.73;;;0.60;;
27408;SDS011;20413;50.782;7.152;2022-09-27T11:23:18;3.38;;;0.65;;
27408;SDS011;20413;50.782;7.152;2022-09-27T11:25:55;2.92;;;0.60;;
27408;SDS011;20413;50.782;7.152;2022-09-27T11:39:19;7.03;;;1.30;;
27408;SDS011;20413;50.782;7.152;2022-09-27T11:42:01;2.70;;;0.90;;
27408;SDS011;20413;50.782;7.152;2022-09-27T11:44:53;1.70;;;1.20;;
27408;SDS011;20413;50.782;7.152;2022-09-27T11:50:39;1.05;;;0.90;;
27408;SDS011;20413;50.782;7.152;2022-09-27T11:53:24;2.33;;;0.90;;
27408;SDS011;20413;50.782;7.152;2022-09-27T12:01:48;2.15;;;0.95;;
27408;SDS011;20413;50.782;7.152;2022-09-27T12:04:35;3.40;;;0.85;;
27408;SDS011;20413;50.782;7.152;2022-09-27T12:07:36;0.90;;;0.70;;
27408;SDS011;20413;50.782;7.152;2022-09-27T12:10:22;3.42;;;0.80;;
27408;SDS011;20413;50.782;7.152;2022-09-27T12:12:49;1.98;;;0.68;;
27408;SDS011;20413;50.782;7.152;2022-09-27T12:15:28;0.73;;;0.60;;
27408;SDS011;20413;50.782;7.152;2022-09-27T12:18:23;1.77;;;0.90;;
27408;SDS011;20413;50.782;7.152;2022-09-27T12:20:56;1.35;;;0.50;;
27408;SDS011;20413;50.782;7.152;2022-09-27T12:23:33;1.73;;;0.70;;
27408;SDS011;20413;50.782;7.152;2022-09-27T12:26:08;0.93;;;0.73;;
27408;SDS011;20413;50.782;7.152;2022-09-27T12:28:48;3.10;;;0.80;;
27408;SDS011;20413;50.782;7.152;2022-09-27T12:31:39;1.25;;;1.00;;
27408;SDS011;20413;50.782;7.152;2022-09-27T12:37:03;1.45;;;0.80;;
27408;SDS011;20413;50.782;7.152;2022-09-27T12:40:01;1.40;;;1.00;;
27408;SDS011;20413;50.782;7.152;2022-09-27T12:45:12;1.60;;;0.90;;
27408;SDS011;20413;50.782;7.152;2022-09-27T12:47:58;1.88;;;1.00;;
27408;SDS011;20413;50.782;7.152;2022-09-27T12:50:51;1.80;;;0.80;;
27408;SDS011;20413;50.782;7.152;2022-09-27T13:05:52;2.80;;;1.00;;
27408;SDS011;20413;50.782;7.152;2022-09-27T13:11:19;1.42;;;0.82;;
27408;SDS011;20413;50.782;7.152;2022-09-27T13:13:57;2.95;;;1.13;;
27408;SDS011;20413;50.782;7.152;2022-09-27T13:16:25;3.08;;;1.55;;
27408;SDS011;20413;50.782;7.152;2022-09-27T13:24:59;1.70;;;0.98;;
27408;SDS011;20413;50.782;7.152;2022-09-27T13:32:36;2.60;;;1.30;;
27408;SDS011;20413;50.782;7.152;2022-09-27T13:35:10;2.80;;;1.08;;
27408;SDS011;20413;50.782;7.152;2022-09-27T13:38:00;2.67;;;0.98;;
27408;SDS011;20413;50.782;7.152;2022-09-27T13:40:30;1.50;;;0.75;;
27408;SDS011;20413;50.782;7.152;2022-09-27T13:43:03;2.47;;;0.60;;
27408;SDS011;20413;50.782;7.152;2022-09-27T13:48:13;3.15;;;0.70;;
27408;SDS011;20413;50.782;7.152;2022-09-27T13:50:47;3.97;;;0.50;;
27408;SDS011;20413;50.782;7.152;2022-09-27T13:56:00;0.93;;;0.40;;
27408;SDS011;20413;50.782;7.152;2022-09-27T14:01:13;2.15;;;0.70;;
27408;SDS011;20413;50.782;7.152;2022-09-27T14:03:54;0.50;;;0.50;;
27408;SDS011;20413;50.782;7.152;2022-09-27T14:06:25;2.45;;;0.60;;
27408;SDS011;20413;50.782;7.152;2022-09-27T14:09:05;2.83;;;0.70;;
27408;SDS011;20413;50.782;7.152;2022-09-27T14:11:38;4.95;;;1.00;;
27408;SDS011;20413;50.782;7.152;2022-09-27T14:14:11;5.18;;;0.80;;
27408;SDS011;20413;50.782;7.152;2022-09-27T14:16:42;1.73;;;0.60;;
27408;SDS011;20413;50.782;7.152;2022-09-27T14:19:21;2.33;;;0.30;;
27408;SDS011;20413;50.782;7.152;2022-09-27T14:21:49;1.80;;;0.40;;
27408;SDS011;20413;50.782;7.152;2022-09-27T14:27:02;1.83;;;0.50;;
27408;SDS011;20413;50.782;7.152;2022-09-27T14:29:30;2.15;;;0.50;;
27408;SDS011;20413;50.782;7.152;2022-09-27T14:32:04;5.63;;;0.77;;
27408;SDS011;20413;50.782;7.152;2022-09-27T14:34:33;2.30;;;0.68;;
27408;SDS011;20413;50.782;7.152;2022-09-27T14:36:59;2.08;;;0.43;;
27408;SDS011;20413;50.782;7.152;2022-09-27T14:39:43;1.67;;;0.63;;
27408;SDS011;20413;50.782;7.152;2022-09-27T14:42:20;2.53;;;0.80;;
27408;SDS011;20413;50.782;7.152;2022-09-27T14:44:49;1.58;;;0.40;;
27408;SDS011;20413;50.782;7.152;2022-09-27T14:55:08;3.65;;;0.50;;
27408;SDS011;20413;50.782;7.152;2022-09-27T14:57:44;2.63;;;0.60;;
27408;SDS011;20413;50.782;7.152;2022-09-27T15:00:19;4.45;;;0.70;;
27408;SDS011;20413;50.782;7.152;2022-09-27T15:02:50;2.05;;;0.55;;
27408;SDS011;20413;50.782;7.152;2022-09-27T15:05:20;4.13;;;0.60;;
27408;SDS011;20413;50.782;7.152;2022-09-27T15:07:48;3.63;;;0.60;;
27408;SDS011;20413;50.782;7.152;2022-09-27T15:10:14;4.53;;;1.30;;
27408;SDS011;20413;50.782;7.152;2022-09-27T15:12:47;3.80;;;0.80;;
27408;SDS011;20413;50.782;7.152;2022-09-27T15:15:15;5.05;;;1.05;;
27408;SDS011;20413;50.782;7.152;2022-09-27T15:17:44;1.55;;;0.68;;
27408;SDS011;20413;50.782;7.152;2022-09-27T15:22:51;3.75;;;0.70;;
27408;SDS011;20413;50.782;7.152;2022-09-27T15:25:23;3.92;;;0.70;;
27408;SDS011;20413;50.782;7.152;2022-09-27T15:28:04;2.90;;;0.65;;
27408;SDS011;20413;50.782;7.152;2022-09-27T15:33:17;2.78;;;0.65;;
27408;SDS011;20413;50.782;7.152;2022-09-27T15:35:52;6.47;;;0.90;;
27408;SDS011;20413;50.782;7.152;2022-09-27T15:40:59;2.33;;;0.98;;
27408;SDS011;20413;50.782;7.152;2022-09-27T15:43:27;4.25;;;0.63;;
27408;SDS011;20413;50.782;7.152;2022-09-27T15:48:21;1.30;;;0.50;;
27408;SDS011;20413;50.782;7.152;2022-09-27T15:50:48;1.33;;;0.43;;
27408;SDS011;20413;50.782;7.152;2022-09-27T15:53:56;0.77;;;0.50;;
27408;SDS011;20413;50.782;7.152;2022-09-27T15:56:09;1.45;;;0.32;;
27408;SDS011;20413;50.782;7.152;2022-09-27T15:58:37;1.60;;;0.70;;
27408;SDS011;20413;50.782;7.152;2022-09-27T16:01:04;2.45;;;0.65;;
27408;SDS011;20413;50.782;7.152;2022-09-27T16:03:30;6.10;;;1.67;;
27408;SDS011;20413;50.782;7.152;2022-09-27T16:05:56;1.73;;;0.60;;
27408;SDS011;20413;50.782;7.152;2022-09-27T16:08:24;2.40;;;0.70;;
27408;SDS011;20413;50.782;7.152;2022-09-27T16:10:54;1.40;;;0.90;;
27408;SDS011;20413;50.782;7.152;2022-09-27T16:13:23;1.42;;;0.60;;
27408;SDS011;20413;50.782;7.152;2022-09-27T16:15:50;3.97;;;1.02;;
27408;SDS011;20413;50.782;7.152;2022-09-27T16:18:16;3.05;;;0.93;;
27408;SDS011;20413;50.782;7.152;2022-09-27T16:20:42;2.25;;;0.70;;
27408;SDS011;20413;50.782;7.152;2022-09-27T16:23:07;2.33;;;1.05;;
27408;SDS011;20413;50.782;7.152;2022-09-27T16:25:33;3.55;;;0.95;;
27408;SDS011;20413;50.782;7.152;2022-09-27T16:27:59;3.75;;;0.68;;
27408;SDS011;20413;50.782;7.152;2022-09-27T16:30:26;1.85;;;1.02;;
27408;SDS011;20413;50.782;7.152;2022-09-27T16:32:51;3.00;;;0.98;;
27408;SDS011;20413;50.782;7.152;2022-09-27T16:35:20;2.35;;;1.10;;
27408;SDS011;20413;50.782;7.152;2022-09-27T16:40:12;4.60;;;1.33;;
27408;SDS011;20413;50.782;7.152;2022-09-27T16:42:41;2.53;;;1.50;;
27408;SDS011;20413;50.782;7.152;2022-09-27T16:45:07;3.95;;;1.45;;
27408;SDS011;20413;50.782;7.152;2022-09-27T16:47:33;1.40;;;1.08;;
27408;SDS011;20413;50.782;7.152;2022-09-27T16:49:59;3.70;;;1.40;;
27408;SDS011;20413;50.782;7.152;2022-09-27T16:52:43;1.65;;;0.90;;
27408;SDS011;20413;50.782;7.152;2022-09-27T16:55:13;2.03;;;1.20;;
27408;SDS011;20413;50.782;7.152;2022-09-27T16:57:42;4.00;;;1.17;;
27408;SDS011;20413;50.782;7.152;2022-09-27T17:00:08;2.35;;;1.35;;
27408;SDS011;20413;50.782;7.152;2022-09-27T17:02:34;1.50;;;1.30;;
27408;SDS011;20413;50.782;7.152;2022-09-27T17:05:00;3.90;;;1.05;;
27408;SDS011;20413;50.782;7.152;2022-09-27T17:07:25;1.73;;;0.80;;
27408;SDS011;20413;50.782;7.152;2022-09-27T17:09:51;4.78;;;1.10;;
27408;SDS011;20413;50.782;7.152;2022-09-27T17:12:17;1.55;;;1.30;;
27408;SDS011;20413;50.782;7.152;2022-09-27T17:14:42;3.08;;;1.23;;
27408;SDS011;20413;50.782;7.152;2022-09-27T17:17:08;1.73;;;1.23;;
27408;SDS011;20413;50.782;7.152;2022-09-27T17:19:34;1.55;;;1.00;;
27408;SDS011;20413;50.782;7.152;2022-09-27T17:22:01;3.85;;;1.52;;
27408;SDS011;20413;50.782;7.152;2022-09-27T17:24:27;5.93;;;1.90;;
27408;SDS011;20413;50.782;7.152;2022-09-27T17:26:53;5.82;;;2.33;;
27408;SDS011;20413;50.782;7.152;2022-09-27T17:29:19;4.38;;;2.67;;
27408;SDS011;20413;50.782;7.152;2022-09-27T17:31:45;4.97;;;1.80;;
27408;SDS011;20413;50.782;7.152;2022-09-27T17:34:11;3.92;;;1.73;;
27408;SDS011;20413;50.782;7.152;2022-09-27T17:36:38;5.10;;;1.95;;
27408;SDS011;20413;50.782;7.152;2022-09-27T17:39:06;4.07;;;1.98;;
27408;SDS011;20413;50.782;7.152;2022-09-27T17:41:35;3.03;;;1.98;;
27408;SDS011;20413;50.782;7.152;2022-09-27T17:44:02;3.22;;;1.95;;
27408;SDS011;20413;50.782;7.152;2022-09-27T17:46:29;5.10;;;2.10;;
27408;SDS011;20413;50.782;7.152;2022-09-27T17:48:56;5.10;;;2.35;;
27408;SDS011;20413;50.782;7.152;2022-09-27T17:51:42;4.00;;;2.38;;
27408;SDS011;20413;50.782;7.152;2022-09-27T17:54:11;2.53;;;2.15;;
27408;SDS011;20413;50.782;7.152;2022-09-27T17:56:38;4.65;;;2.00;;